< Typhoon 200020 2000 Season Typhoon 200022 >
Typhoon 200021 (BEBINCA)
General InformationTrack Information on Google MapsDetailed Wind InformationList of All Images || Disaster Info.ResourceGoogle EarthGE AnimationAtom FeedGeoJSON
Detalied Best Track (Time Zone = UTC)
Year Month Day Hour Lat. Long. Pressure (hPa) Wind (kt) Class Image Chart
2000 10 30 18 8.3 135.1 1004 0 2 Image Chart
2000 10 31 00 8.9 133.4 1004 0 2 Image Chart
2000 10 31 06 9.1 132.0 1002 0 2 Image Chart
2000 10 31 12 9.6 130.9 1002 0 2 Image Chart
2000 10 31 18 10.1 130.0 1000 0 2 Image Chart
2000 11 1 00 10.7 129.1 998 35 3 Image Chart
2000 11 1 06 11.3 128.2 996 35 3 Image Chart
2000 11 1 12 12.0 127.2 994 45 3 Image Chart
2000 11 1 18 12.8 126.2 990 50 4 Image Chart
2000 11 2 00 13.6 124.9 985 55 4 Image Chart
2000 11 2 06 14.2 123.5 985 55 4 Image Chart
2000 11 2 12 14.5 122.5 985 55 4 Image Chart
2000 11 2 18 14.6 121.5 990 50 4 Image Chart
2000 11 3 00 14.7 120.5 998 35 3 Image Chart
2000 11 3 06 15.0 119.5 996 40 3 Image Chart
2000 11 3 12 15.4 118.8 994 45 3 Image Chart
2000 11 3 18 15.8 118.2 992 45 3 Image Chart
2000 11 4 00 16.3 117.5 990 50 4 Image Chart
2000 11 4 06 16.6 117.2 985 55 4 Image Chart
2000 11 4 12 16.7 117.1 985 55 4 Image Chart
2000 11 4 18 16.9 116.9 985 55 4 Image Chart
2000 11 5 00 17.1 116.8 985 55 4 Image Chart
2000 11 5 06 17.7 116.8 985 55 4 Image Chart
2000 11 5 12 18.5 116.8 980 60 4 Image Chart
2000 11 5 18 19.3 117.1 980 60 4 Image Chart
2000 11 6 00 19.9 117.1 985 55 4 Image Chart
2000 11 6 06 20.1 116.9 990 50 4 Image Chart
2000 11 6 12 20.1 116.8 996 40 3 Image Chart
2000 11 6 18 20.2 116.5 1000 35 3 Image Chart
2000 11 7 00 20.4 115.8 1006 0 2 Image Chart
2000 11 7 06 20.7 114.8 1006 0 2 Image Chart
2000 11 7 12 20.8 114.3 1006 0 2 Image Chart
2000 11 7 18 21.0 113.4 1008 0 2 Image Chart
Japan Meteorological Agency Best Track Data | Correction Date : 2001-12-21
< Typhoon 200020 2000 Season Typhoon 200022 >

Help